Time;durP1;ratioP1;P1;durP2;ratioP2;P2;SDS_P1;SDS_P2;PMS_P1;PMS_P2;Temp;Humidity;BMP_temperature;BMP_pressure;BME280_temperature;BME280_humidity;BME280_pressure;Samples;Min_cycle;Max_cycle;Signal;HPM_P1;HPM_P2
2022/07/07 00:01:45;;;;;;;2.20;1.80;;;;;;;;;;4995989;28;20176;-77
2022/07/07 00:04:10;;;;;;;2.10;1.90;;;;;;;;;;4991865;28;20183;-77
2022/07/07 00:06:36;;;;;;;2.23;2.03;;;;;;;;;;4992412;28;20222;-77
2022/07/07 00:09:01;;;;;;;2.33;2.13;;;;;;;;;;5001840;28;20228;-77
2022/07/07 00:11:27;;;;;;;2.47;1.63;;;;;;;;;;4995616;28;20182;-77
2022/07/07 00:13:52;;;;;;;2.17;1.97;;;;;;;;;;4997395;28;20188;-77
2022/07/07 00:16:17;;;;;;;2.27;1.80;;;;;;;;;;4991603;28;20401;-77
2022/07/07 00:18:43;;;;;;;1.70;1.60;;;;;;;;;;4991442;28;20248;-77
2022/07/07 00:21:09;;;;;;;5.47;2.07;;;;;;;;;;4991794;28;20176;-77
2022/07/07 00:23:34;;;;;;;2.07;1.77;;;;;;;;;;4993365;28;20190;-77
2022/07/07 00:25:59;;;;;;;2.57;1.83;;;;;;;;;;4988689;28;20204;-77
2022/07/07 00:28:25;;;;;;;2.60;1.60;;;;;;;;;;4992535;28;20213;-77
2022/07/07 00:30:51;;;;;;;2.67;1.70;;;;;;;;;;4988555;28;20242;-77
2022/07/07 00:33:17;;;;;;;3.10;1.90;;;;;;;;;;4989160;28;20245;-77
2022/07/07 00:35:42;;;;;;;2.00;1.80;;;;;;;;;;4990285;28;20215;-77
2022/07/07 00:38:07;;;;;;;2.03;1.57;;;;;;;;;;4990311;28;20274;-77
2022/07/07 00:40:33;;;;;;;1.93;1.60;;;;;;;;;;4990671;28;20187;-77
2022/07/07 00:42:58;;;;;;;2.50;1.80;;;;;;;;;;4996251;28;20226;-77
2022/07/07 00:45:24;;;;;;;1.80;1.70;;;;;;;;;;4990852;28;20188;-77
2022/07/07 00:47:49;;;;;;;3.87;1.90;;;;;;;;;;4990680;28;20178;-77
2022/07/07 00:50:14;;;;;;;2.00;1.57;;;;;;;;;;4992342;28;20199;-77
2022/07/07 00:52:40;;;;;;;1.97;1.60;;;;;;;;;;4989003;28;20190;-77
2022/07/07 00:55:08;;;;;;;1.80;1.67;;;;;;;;;;4986999;28;20194;-77
2022/07/07 00:57:33;;;;;;;3.03;1.83;;;;;;;;;;4989939;28;20246;-77
2022/07/07 00:59:59;;;;;;;2.23;1.67;;;;;;;;;;4988954;28;20184;-77
2022/07/07 01:02:26;;;;;;;2.00;1.90;;;;;;;;;;4992907;28;20188;-77
2022/07/07 01:04:52;;;;;;;1.60;1.50;;;;;;;;;;5003854;28;20207;-77
2022/07/07 01:07:17;;;;;;;3.13;2.10;;;;;;;;;;4993520;28;20211;-77
2022/07/07 01:09:43;;;;;;;1.80;1.70;;;;;;;;;;4989674;28;20183;-77
2022/07/07 01:12:08;;;;;;;2.53;1.90;;;;;;;;;;4994483;28;20282;-77
2022/07/07 01:14:33;;;;;;;1.80;1.70;;;;;;;;;;4993985;28;20183;-77
2022/07/07 01:16:58;;;;;;;2.00;1.80;;;;;;;;;;4991082;28;20263;-77
2022/07/07 01:19:24;;;;;;;1.83;1.60;;;;;;;;;;4987274;28;20203;-77
2022/07/07 01:21:55;;;;;;;3.20;1.90;;;;;;;;;;4995546;28;20179;-77
2022/07/07 01:24:21;;;;;;;2.87;1.70;;;;;;;;;;4991154;28;20184;-77
2022/07/07 01:26:47;;;;;;;2.20;2.00;;;;;;;;;;4992437;28;20176;-77
2022/07/07 01:29:12;;;;;;;3.67;1.80;;;;;;;;;;4991005;28;20305;-77
2022/07/07 01:31:37;;;;;;;3.03;1.77;;;;;;;;;;4992429;28;20280;-77
2022/07/07 01:34:03;;;;;;;3.10;1.60;;;;;;;;;;4986366;28;20206;-77
2022/07/07 01:36:28;;;;;;;2.90;1.80;;;;;;;;;;4988993;28;20291;-77
2022/07/07 01:38:53;;;;;;;2.93;1.73;;;;;;;;;;4986144;28;20210;-77
2022/07/07 01:41:18;;;;;;;2.03;1.80;;;;;;;;;;4989585;28;20176;-77
2022/07/07 01:43:43;;;;;;;2.03;1.93;;;;;;;;;;4991777;28;20316;-77
2022/07/07 01:46:11;;;;;;;5.03;1.70;;;;;;;;;;4994227;28;20184;-77
2022/07/07 01:48:37;;;;;;;2.17;1.80;;;;;;;;;;4992355;28;20222;-77
2022/07/07 01:51:02;;;;;;;1.83;1.70;;;;;;;;;;4989229;28;20180;-77
2022/07/07 01:53:28;;;;;;;3.30;1.87;;;;;;;;;;4988702;28;20187;-77
2022/07/07 01:55:53;;;;;;;1.53;1.43;;;;;;;;;;4987670;28;20310;-77
2022/07/07 01:58:18;;;;;;;2.63;1.60;;;;;;;;;;4992782;28;20200;-77
2022/07/07 02:00:43;;;;;;;2.43;1.50;;;;;;;;;;4988321;28;20208;-77
2022/07/07 02:03:09;;;;;;;1.70;1.60;;;;;;;;;;4995859;28;20176;-77
2022/07/07 02:05:34;;;;;;;1.77;1.67;;;;;;;;;;4997396;28;20184;-77
2022/07/07 02:07:59;;;;;;;2.87;1.60;;;;;;;;;;4996804;28;20184;-77
2022/07/07 02:13:13;;;;;;;2.20;1.73;;;;;;;;;;4965684;28;20211;-77
2022/07/07 02:15:38;;;;;;;4.73;1.60;;;;;;;;;;4992340;28;20191;-77
2022/07/07 02:18:03;;;;;;;6.30;1.70;;;;;;;;;;4999318;28;20250;-77
2022/07/07 02:20:28;;;;;;;2.00;1.83;;;;;;;;;;4990035;28;20200;-77
2022/07/07 02:22:54;;;;;;;4.83;1.60;;;;;;;;;;4991933;28;20184;-77
2022/07/07 02:25:19;;;;;;;2.63;1.63;;;;;;;;;;4992246;28;20190;-77
2022/07/07 02:27:44;;;;;;;1.80;1.60;;;;;;;;;;4995123;28;20191;-77
2022/07/07 02:30:10;;;;;;;1.70;1.60;;;;;;;;;;4990652;28;20466;-77
2022/07/07 02:32:37;;;;;;;1.77;1.50;;;;;;;;;;4994079;28;20172;-77
2022/07/07 02:35:02;;;;;;;2.77;1.60;;;;;;;;;;4990081;28;20181;-77
2022/07/07 02:37:27;;;;;;;3.77;1.50;;;;;;;;;;4991565;28;20204;-77
2022/07/07 02:39:53;;;;;;;1.63;1.53;;;;;;;;;;4992407;28;20268;-77
2022/07/07 02:42:18;;;;;;;2.13;1.80;;;;;;;;;;4992906;28;20650;-77
2022/07/07 02:44:43;;;;;;;1.70;1.60;;;;;;;;;;4990811;28;20188;-77
2022/07/07 02:47:08;;;;;;;1.60;1.50;;;;;;;;;;4991367;28;20198;-77
2022/07/07 02:49:34;;;;;;;1.93;1.70;;;;;;;;;;4992051;28;20199;-77
2022/07/07 02:51:59;;;;;;;2.40;1.60;;;;;;;;;;4992128;28;20193;-77
2022/07/07 02:54:24;;;;;;;1.90;1.70;;;;;;;;;;4993672;28;20182;-77
2022/07/07 02:56:50;;;;;;;2.37;1.67;;;;;;;;;;5001800;28;20208;-77
2022/07/07 02:59:15;;;;;;;2.60;1.90;;;;;;;;;;4989263;28;20200;-77
2022/07/07 03:01:40;;;;;;;3.13;1.47;;;;;;;;;;4998344;28;20388;-77
2022/07/07 03:04:05;;;;;;;2.23;1.50;;;;;;;;;;4989456;28;20255;-77
2022/07/07 03:06:31;;;;;;;3.07;1.60;;;;;;;;;;4982779;28;20190;-76
2022/07/07 03:08:56;;;;;;;1.87;1.67;;;;;;;;;;4988199;28;20191;-77
2022/07/07 03:11:21;;;;;;;1.60;1.50;;;;;;;;;;4993168;28;20180;-77
2022/07/07 03:13:46;;;;;;;2.70;1.40;;;;;;;;;;4989843;28;20305;-77
2022/07/07 03:16:11;;;;;;;1.83;1.73;;;;;;;;;;4996039;28;20195;-77
2022/07/07 03:18:37;;;;;;;3.53;1.80;;;;;;;;;;5004690;28;20226;-77
2022/07/07 03:21:02;;;;;;;2.03;1.57;;;;;;;;;;4999800;28;20187;-77
2022/07/07 03:23:27;;;;;;;1.90;1.63;;;;;;;;;;4994763;28;20267;-76
2022/07/07 03:25:52;;;;;;;2.50;1.87;;;;;;;;;;4992724;28;20180;-76
2022/07/07 03:28:18;;;;;;;4.07;1.40;;;;;;;;;;4990566;28;20270;-77
2022/07/07 03:30:43;;;;;;;1.97;1.70;;;;;;;;;;4998019;28;20187;-77
2022/07/07 03:33:08;;;;;;;2.30;1.60;;;;;;;;;;4998308;28;20184;-77
2022/07/07 03:35:33;;;;;;;2.80;1.67;;;;;;;;;;4992644;28;20202;-77
2022/07/07 03:37:59;;;;;;;3.47;1.90;;;;;;;;;;4998898;28;20203;-77
2022/07/07 03:40:24;;;;;;;3.70;1.80;;;;;;;;;;4989785;28;20214;-77
2022/07/07 03:42:49;;;;;;;2.23;1.80;;;;;;;;;;5001391;28;20193;-77
2022/07/07 03:45:14;;;;;;;1.73;1.40;;;;;;;;;;4988549;28;20183;-77
2022/07/07 03:47:39;;;;;;;2.80;1.60;;;;;;;;;;4995917;28;20182;-77
2022/07/07 03:50:05;;;;;;;4.23;2.00;;;;;;;;;;4995228;28;20278;-77
2022/07/07 03:52:30;;;;;;;2.13;1.90;;;;;;;;;;4996170;28;20187;-76
2022/07/07 03:54:55;;;;;;;3.43;1.60;;;;;;;;;;4983835;28;20192;-76
2022/07/07 03:57:21;;;;;;;3.47;1.70;;;;;;;;;;4995033;28;20207;-77
2022/07/07 03:59:46;;;;;;;1.60;1.50;;;;;;;;;;4983487;28;20185;-77
2022/07/07 04:02:11;;;;;;;3.13;1.53;;;;;;;;;;4988681;28;20235;-77
2022/07/07 04:04:37;;;;;;;2.90;1.70;;;;;;;;;;4992159;28;20183;-77
2022/07/07 04:07:02;;;;;;;1.90;1.80;;;;;;;;;;4991003;28;20188;-76
2022/07/07 04:09:27;;;;;;;2.97;1.90;;;;;;;;;;4987534;28;20257;-77
2022/07/07 04:11:53;;;;;;;2.10;1.90;;;;;;;;;;4990841;28;20187;-77
2022/07/07 04:14:18;;;;;;;3.50;1.60;;;;;;;;;;4986951;28;20179;-77
2022/07/07 04:16:43;;;;;;;1.80;1.70;;;;;;;;;;4989474;28;20187;-77
2022/07/07 04:19:08;;;;;;;4.00;1.70;;;;;;;;;;4988548;28;20209;-77
2022/07/07 04:21:34;;;;;;;2.00;1.77;;;;;;;;;;4991366;28;20184;-77
2022/07/07 04:23:59;;;;;;;1.80;1.70;;;;;;;;;;4989086;28;20188;-76
2022/07/07 04:26:25;;;;;;;3.53;1.90;;;;;;;;;;4990198;28;20183;-77
2022/07/07 04:28:50;;;;;;;3.07;1.77;;;;;;;;;;4986817;28;20188;-77
2022/07/07 04:31:15;;;;;;;2.43;1.90;;;;;;;;;;4988169;28;20187;-77
2022/07/07 04:33:40;;;;;;;3.53;1.83;;;;;;;;;;4993188;28;20188;-77
2022/07/07 04:36:06;;;;;;;1.90;1.80;;;;;;;;;;4991873;28;20273;-77
2022/07/07 04:38:31;;;;;;;1.90;1.80;;;;;;;;;;4988269;28;20206;-77
2022/07/07 04:40:56;;;;;;;2.50;2.03;;;;;;;;;;4990960;28;20180;-77
2022/07/07 04:43:21;;;;;;;2.27;1.77;;;;;;;;;;4994467;28;20180;-77
2022/07/07 04:45:47;;;;;;;8.40;3.50;;;;;;;;;;4991231;28;20187;-77
2022/07/07 04:48:12;;;;;;;4.20;2.03;;;;;;;;;;4987449;28;20191;-77
2022/07/07 04:50:37;;;;;;;2.20;1.90;;;;;;;;;;4993382;28;20203;-79
2022/07/07 04:53:03;;;;;;;4.00;2.23;;;;;;;;;;4988951;28;20180;-78
2022/07/07 04:55:28;;;;;;;4.20;2.10;;;;;;;;;;4982497;28;20184;-78
2022/07/07 04:57:53;;;;;;;2.53;1.90;;;;;;;;;;4991309;28;20300;-78
2022/07/07 05:00:18;;;;;;;5.47;2.77;;;;;;;;;;4988853;28;20179;-78
2022/07/07 05:02:43;;;;;;;2.97;1.87;;;;;;;;;;4982693;28;20240;-78
2022/07/07 05:05:09;;;;;;;2.33;2.10;;;;;;;;;;4991709;28;20187;-78
2022/07/07 05:07:34;;;;;;;2.20;2.00;;;;;;;;;;4992341;28;20184;-77
2022/07/07 05:09:59;;;;;;;3.30;2.00;;;;;;;;;;4991441;28;20227;-86
2022/07/07 05:12:25;;;;;;;4.87;1.80;;;;;;;;;;4999773;28;20196;-85
2022/07/07 05:14:50;;;;;;;2.40;1.93;;;;;;;;;;4990175;28;20180;-85
2022/07/07 05:17:15;;;;;;;2.07;1.87;;;;;;;;;;4990430;28;20224;-86
2022/07/07 05:19:40;;;;;;;2.20;2.10;;;;;;;;;;4990789;28;20179;-85
2022/07/07 05:22:06;;;;;;;2.57;1.93;;;;;;;;;;4993222;28;20172;-85
2022/07/07 05:24:31;;;;;;;2.60;1.83;;;;;;;;;;4990433;28;20204;-85
2022/07/07 05:26:56;;;;;;;3.63;1.87;;;;;;;;;;4990180;28;20169;-85
2022/07/07 05:29:21;;;;;;;1.93;1.80;;;;;;;;;;4989732;28;20178;-86
2022/07/07 05:31:47;;;;;;;2.20;2.10;;;;;;;;;;4989665;28;20189;-86
2022/07/07 05:34:12;;;;;;;2.17;1.80;;;;;;;;;;4992440;28;20187;-85
2022/07/07 05:36:37;;;;;;;2.80;2.03;;;;;;;;;;4989763;28;20180;-85
2022/07/07 05:39:02;;;;;;;2.00;1.80;;;;;;;;;;4990394;28;20208;-85
2022/07/07 05:41:28;;;;;;;3.70;1.93;;;;;;;;;;4993434;28;20221;-85
2022/07/07 05:43:53;;;;;;;2.10;1.90;;;;;;;;;;4993726;28;20193;-86
2022/07/07 05:46:18;;;;;;;1.93;1.83;;;;;;;;;;4993200;28;20188;-86
2022/07/07 05:48:43;;;;;;;2.63;1.90;;;;;;;;;;4995201;28;20256;-86
2022/07/07 05:51:09;;;;;;;3.03;1.93;;;;;;;;;;4992761;28;20178;-85
2022/07/07 05:53:35;;;;;;;2.73;2.10;;;;;;;;;;4993847;28;20180;-86
2022/07/07 05:56:00;;;;;;;4.47;1.97;;;;;;;;;;4993596;28;20228;-86
2022/07/07 05:58:25;;;;;;;1.87;1.77;;;;;;;;;;4993064;28;20277;-86
2022/07/07 06:00:50;;;;;;;2.60;1.87;;;;;;;;;;4993044;28;20210;-86
2022/07/07 06:03:16;;;;;;;2.87;2.00;;;;;;;;;;4994449;28;20241;-86
2022/07/07 06:05:43;;;;;;;2.20;1.80;;;;;;;;;;4993546;28;20239;-86
2022/07/07 06:08:08;;;;;;;1.90;1.80;;;;;;;;;;4993630;28;20186;-86
2022/07/07 06:10:34;;;;;;;2.13;1.93;;;;;;;;;;4993127;28;20199;-87
2022/07/07 06:12:59;;;;;;;2.50;2.30;;;;;;;;;;4992151;28;20183;-86
2022/07/07 06:15:24;;;;;;;4.10;2.13;;;;;;;;;;4992920;28;20190;-86
2022/07/07 06:17:50;;;;;;;1.90;1.80;;;;;;;;;;4993566;28;20250;-87
2022/07/07 06:20:15;;;;;;;3.70;2.10;;;;;;;;;;4996492;28;20231;-87
2022/07/07 06:22:41;;;;;;;2.00;1.70;;;;;;;;;;4995410;28;20176;-87
2022/07/07 06:25:09;;;;;;;3.00;1.83;;;;;;;;;;4990616;28;20231;-86
2022/07/07 06:27:35;;;;;;;4.53;2.10;;;;;;;;;;4989561;28;20252;-86
2022/07/07 06:30:00;;;;;;;3.43;1.97;;;;;;;;;;4993099;28;20567;-86
2022/07/07 06:32:25;;;;;;;6.80;2.10;;;;;;;;;;4995392;28;20191;-87
2022/07/07 06:34:51;;;;;;;5.17;2.20;;;;;;;;;;4994561;28;20225;-86
2022/07/07 06:37:16;;;;;;;4.03;2.10;;;;;;;;;;4994308;28;20170;-87
2022/07/07 06:39:41;;;;;;;3.13;1.83;;;;;;;;;;4992955;28;20261;-86
2022/07/07 06:42:06;;;;;;;2.73;1.83;;;;;;;;;;4995699;28;20180;-86
2022/07/07 06:44:32;;;;;;;2.20;2.00;;;;;;;;;;4993143;28;20202;-86
2022/07/07 06:47:00;;;;;;;2.83;1.93;;;;;;;;;;4996165;28;20185;-86
2022/07/07 06:49:26;;;;;;;2.83;2.50;;;;;;;;;;4993964;28;20192;-87
2022/07/07 06:51:54;;;;;;;2.47;1.97;;;;;;;;;;4992369;28;20180;-86
2022/07/07 06:54:19;;;;;;;2.70;2.10;;;;;;;;;;4994858;28;20204;-87
2022/07/07 06:56:44;;;;;;;4.47;2.00;;;;;;;;;;4992414;28;20206;-87
2022/07/07 06:59:10;;;;;;;2.40;2.07;;;;;;;;;;4992861;28;20242;-87
2022/07/07 07:01:35;;;;;;;7.30;2.40;;;;;;;;;;4994205;28;20185;-87
2022/07/07 07:04:00;;;;;;;2.30;2.10;;;;;;;;;;4997681;28;20173;-86
2022/07/07 07:06:28;;;;;;;3.07;2.57;;;;;;;;;;4990270;28;20275;-87
2022/07/07 07:08:53;;;;;;;3.87;2.20;;;;;;;;;;4992548;28;20176;-87
2022/07/07 07:11:18;;;;;;;2.90;2.30;;;;;;;;;;4996231;28;20180;-87
2022/07/07 07:13:47;;;;;;;3.53;2.30;;;;;;;;;;4989989;28;20209;-87
2022/07/07 07:16:12;;;;;;;3.93;2.60;;;;;;;;;;4990610;28;20214;-86
2022/07/07 07:18:37;;;;;;;3.47;2.37;;;;;;;;;;4992848;28;20330;-87
2022/07/07 07:21:03;;;;;;;2.43;2.23;;;;;;;;;;4993949;28;20175;-86
2022/07/07 07:23:28;;;;;;;3.23;2.20;;;;;;;;;;4992341;28;20176;-87
2022/07/07 07:25:53;;;;;;;2.63;2.43;;;;;;;;;;4993387;28;20172;-87
2022/07/07 07:28:19;;;;;;;3.50;2.73;;;;;;;;;;4997833;28;20177;-87
2022/07/07 07:30:44;;;;;;;3.10;2.30;;;;;;;;;;4994283;28;20183;-86
2022/07/07 07:33:10;;;;;;;3.27;2.03;;;;;;;;;;4994509;28;20219;-87
2022/07/07 07:35:35;;;;;;;4.57;2.33;;;;;;;;;;4996019;28;20196;-87
2022/07/07 07:38:00;;;;;;;3.10;2.80;;;;;;;;;;4992086;28;20205;-85
2022/07/07 07:40:26;;;;;;;2.67;2.37;;;;;;;;;;4992021;28;20177;-86
2022/07/07 07:42:51;;;;;;;2.70;2.50;;;;;;;;;;4991735;28;20183;-87
2022/07/07 07:45:16;;;;;;;2.50;2.30;;;;;;;;;;4993065;28;20183;-86
2022/07/07 07:47:43;;;;;;;3.50;2.60;;;;;;;;;;4994406;28;20212;-86
2022/07/07 07:50:13;;;;;;;2.40;2.20;;;;;;;;;;4992643;28;20181;-86
2022/07/07 07:52:39;;;;;;;2.47;2.33;;;;;;;;;;4991385;28;20192;-86
2022/07/07 07:55:05;;;;;;;2.50;2.30;;;;;;;;;;4991619;28;20176;-87
2022/07/07 07:57:30;;;;;;;3.27;2.70;;;;;;;;;;4992940;28;20215;-87
2022/07/07 07:59:56;;;;;;;2.90;2.40;;;;;;;;;;4993305;28;20177;-87
2022/07/07 08:02:21;;;;;;;2.83;2.63;;;;;;;;;;4992935;28;20173;-86
2022/07/07 08:04:46;;;;;;;5.50;2.67;;;;;;;;;;4991547;28;20176;-86
2022/07/07 08:07:11;;;;;;;3.23;2.50;;;;;;;;;;4993427;28;20200;-86
2022/07/07 08:09:36;;;;;;;3.10;2.90;;;;;;;;;;4992133;28;20183;-87
2022/07/07 08:12:02;;;;;;;3.73;2.40;;;;;;;;;;4991406;28;20179;-87
2022/07/07 08:14:27;;;;;;;4.07;3.67;;;;;;;;;;4989252;28;20179;-86
2022/07/07 08:16:52;;;;;;;4.80;3.80;;;;;;;;;;4990882;28;20179;-87
2022/07/07 08:19:19;;;;;;;5.57;4.57;;;;;;;;;;4992469;28;20231;-86
2022/07/07 08:21:47;;;;;;;5.50;5.00;;;;;;;;;;4988182;28;20216;-87
2022/07/07 08:24:13;;;;;;;7.57;5.20;;;;;;;;;;4991633;28;20187;-87
2022/07/07 08:26:38;;;;;;;5.70;5.00;;;;;;;;;;4990965;28;20175;-86
2022/07/07 08:29:04;;;;;;;6.90;5.87;;;;;;;;;;4990902;28;20180;-87
2022/07/07 08:31:30;;;;;;;5.93;5.43;;;;;;;;;;4999060;28;20180;-87
2022/07/07 08:33:55;;;;;;;6.47;5.57;;;;;;;;;;4990203;28;20176;-86
2022/07/07 08:36:20;;;;;;;7.20;5.70;;;;;;;;;;4983969;28;20196;-86
2022/07/07 08:38:45;;;;;;;5.63;4.83;;;;;;;;;;4994047;28;20214;-86
2022/07/07 08:41:11;;;;;;;7.27;5.27;;;;;;;;;;4991444;28;20178;-87
2022/07/07 08:43:36;;;;;;;6.10;5.50;;;;;;;;;;4990467;28;20263;-87
2022/07/07 08:46:02;;;;;;;6.77;6.07;;;;;;;;;;4990647;28;20184;-87
2022/07/07 08:48:27;;;;;;;5.50;5.10;;;;;;;;;;4990245;28;20187;-87
2022/07/07 08:50:53;;;;;;;5.80;5.30;;;;;;;;;;4992505;28;20192;-87
2022/07/07 08:53:18;;;;;;;6.80;5.93;;;;;;;;;;4992164;28;20211;-87
2022/07/07 08:55:45;;;;;;;7.27;6.07;;;;;;;;;;4993401;28;20172;-86
2022/07/07 08:58:10;;;;;;;6.87;5.23;;;;;;;;;;4990294;28;20204;-87
2022/07/07 09:00:36;;;;;;;6.50;5.90;;;;;;;;;;4990456;28;20178;-87
2022/07/07 09:03:07;;;;;;;7.47;5.33;;;;;;;;;;4990753;28;20254;-87
2022/07/07 09:05:42;;;;;;;6.87;6.20;;;;;;;;;;4988909;28;20177;-86
2022/07/07 09:08:17;;;;;;;8.20;6.10;;;;;;;;;;4991933;28;20186;-86
2022/07/07 09:10:44;;;;;;;6.70;5.93;;;;;;;;;;4987203;28;20183;-87
2022/07/07 09:13:29;;;;;;;10.87;5.90;;;;;;;;;;4990401;28;20181;-87
2022/07/07 09:15:57;;;;;;;6.00;5.43;;;;;;;;;;4988087;28;20180;-87
2022/07/07 09:18:29;;;;;;;6.77;5.20;;;;;;;;;;4992010;28;20249;-87
2022/07/07 09:20:55;;;;;;;6.17;5.40;;;;;;;;;;4987053;28;20184;-86
2022/07/07 09:23:20;;;;;;;5.73;4.97;;;;;;;;;;4991351;28;20186;-86
2022/07/07 09:25:45;;;;;;;7.63;5.20;;;;;;;;;;4988014;28;20187;-87
2022/07/07 09:28:10;;;;;;;6.07;5.10;;;;;;;;;;4990128;28;20193;-87
2022/07/07 09:30:39;;;;;;;7.13;4.63;;;;;;;;;;4991326;28;20194;-87
2022/07/07 09:33:06;;;;;;;5.43;4.90;;;;;;;;;;4993433;28;20176;-87
2022/07/07 09:38:25;;;;;;;4.40;4.00;;;;;;;;;;4993858;28;20214;-87
2022/07/07 09:41:05;;;;;;;5.30;4.10;;;;;;;;;;4989326;28;20183;-87
2022/07/07 09:43:32;;;;;;;4.30;3.90;;;;;;;;;;5006105;28;20172;-87
2022/07/07 09:46:14;;;;;;;4.00;3.70;;;;;;;;;;4990129;28;20324;-87
2022/07/07 09:48:41;;;;;;;5.77;4.00;;;;;;;;;;4990384;28;20184;-87
2022/07/07 09:51:11;;;;;;;4.07;3.53;;;;;;;;;;4989327;28;20196;-87
2022/07/07 09:53:51;;;;;;;4.20;3.53;;;;;;;;;;4988975;28;20181;-87
2022/07/07 09:56:17;;;;;;;3.30;3.00;;;;;;;;;;4990874;28;20211;-87
2022/07/07 09:58:43;;;;;;;5.70;3.10;;;;;;;;;;4992536;28;20479;-87
2022/07/07 10:01:08;;;;;;;3.87;3.30;;;;;;;;;;4990853;28;20176;-88
2022/07/07 10:03:33;;;;;;;4.37;2.93;;;;;;;;;;4989466;28;20190;-88
2022/07/07 10:05:59;;;;;;;3.67;2.97;;;;;;;;;;4987418;28;20179;-87
2022/07/07 10:08:24;;;;;;;2.67;2.47;;;;;;;;;;4988500;28;20324;-88
2022/07/07 10:10:51;;;;;;;2.90;2.40;;;;;;;;;;4989949;28;20178;-88
2022/07/07 10:13:16;;;;;;;3.50;2.53;;;;;;;;;;4989332;28;20243;-88
2022/07/07 10:15:41;;;;;;;2.60;2.40;;;;;;;;;;4988853;28;20267;-88
2022/07/07 10:18:08;;;;;;;3.60;2.17;;;;;;;;;;4989176;28;20238;-87
2022/07/07 10:20:36;;;;;;;3.90;2.13;;;;;;;;;;4991567;28;20214;-90
2022/07/07 10:23:01;;;;;;;3.00;2.50;;;;;;;;;;4991400;28;20276;-89
2022/07/07 10:25:26;;;;;;;3.80;2.43;;;;;;;;;;4990164;28;20306;-88
2022/07/07 10:27:52;;;;;;;5.10;2.30;;;;;;;;;;4993420;28;20213;-89
2022/07/07 10:30:35;;;;;;;3.73;2.50;;;;;;;;;;4996821;28;20191;-88
2022/07/07 10:33:03;;;;;;;3.67;2.73;;;;;;;;;;4988592;28;20191;-90
2022/07/07 10:35:28;;;;;;;4.47;2.63;;;;;;;;;;5011565;28;20237;-88
2022/07/07 10:37:54;;;;;;;3.53;2.70;;;;;;;;;;4999581;28;20271;-89
2022/07/07 10:40:29;;;;;;;5.33;3.40;;;;;;;;;;4993938;28;20222;-88
2022/07/07 10:43:13;;;;;;;3.20;2.90;;;;;;;;;;4990491;28;20195;-88
2022/07/07 10:45:45;;;;;;;6.07;2.87;;;;;;;;;;4991320;28;20176;-88
2022/07/07 10:48:30;;;;;;;4.37;3.73;;;;;;;;;;4992877;28;20195;-88
2022/07/07 10:51:14;;;;;;;4.40;3.00;;;;;;;;;;4998076;28;20176;-90
2022/07/07 10:53:53;;;;;;;3.80;2.63;;;;;;;;;;4992976;28;20195;-88
2022/07/07 10:56:20;;;;;;;3.50;3.07;;;;;;;;;;4992381;28;20202;-89
2022/07/07 10:58:52;;;;;;;3.17;2.70;;;;;;;;;;4992529;28;20199;-88
2022/07/07 11:01:19;;;;;;;5.33;3.10;;;;;;;;;;4991943;28;20187;-89
2022/07/07 11:03:44;;;;;;;5.17;3.33;;;;;;;;;;4993975;28;20184;-88
2022/07/07 11:06:09;;;;;;;4.20;3.53;;;;;;;;;;4992351;28;20187;-87
2022/07/07 11:08:36;;;;;;;4.47;3.60;;;;;;;;;;4992342;28;20225;-89
2022/07/07 11:11:03;;;;;;;4.80;4.40;;;;;;;;;;4989489;28;20275;-88
2022/07/07 11:13:31;;;;;;;4.23;3.63;;;;;;;;;;4992620;28;20199;-88
2022/07/07 11:16:06;;;;;;;4.07;3.63;;;;;;;;;;4993657;28;20187;-89
2022/07/07 11:18:33;;;;;;;3.43;3.13;;;;;;;;;;4993524;28;20237;-87
2022/07/07 11:21:00;;;;;;;7.00;3.60;;;;;;;;;;5010299;28;20186;-89
2022/07/07 11:23:42;;;;;;;3.97;3.67;;;;;;;;;;4989492;28;20192;-86
2022/07/07 11:26:08;;;;;;;4.90;3.43;;;;;;;;;;5007202;28;20220;-89
2022/07/07 11:28:35;;;;;;;4.63;3.47;;;;;;;;;;4997620;28;20200;-89
2022/07/07 11:31:05;;;;;;;4.10;3.00;;;;;;;;;;4999593;28;20190;-88
2022/07/07 11:33:30;;;;;;;4.30;3.10;;;;;;;;;;4992712;28;20194;-88
2022/07/07 11:35:55;;;;;;;3.40;2.90;;;;;;;;;;4988373;28;20183;-78
2022/07/07 11:38:25;;;;;;;3.83;3.53;;;;;;;;;;4988830;28;20222;-77
2022/07/07 11:40:50;;;;;;;4.27;3.50;;;;;;;;;;4991619;28;20190;-77
2022/07/07 11:43:22;;;;;;;6.50;3.33;;;;;;;;;;4991567;28;20180;-77
2022/07/07 11:45:47;;;;;;;3.93;3.27;;;;;;;;;;5002168;28;20189;-77
2022/07/07 11:48:13;;;;;;;6.23;3.70;;;;;;;;;;4991462;28;20185;-77
2022/07/07 11:50:38;;;;;;;4.40;4.00;;;;;;;;;;4991253;28;20244;-77
2022/07/07 11:53:04;;;;;;;4.97;3.37;;;;;;;;;;4997269;28;20261;-77
2022/07/07 11:55:30;;;;;;;3.90;3.57;;;;;;;;;;4994678;28;20172;-77
2022/07/07 11:57:57;;;;;;;3.47;3.17;;;;;;;;;;4993639;28;20216;-77
2022/07/07 12:00:27;;;;;;;6.83;4.20;;;;;;;;;;4990645;28;20186;-77
2022/07/07 12:02:56;;;;;;;3.93;3.53;;;;;;;;;;4991475;28;20267;-77
2022/07/07 12:05:26;;;;;;;4.37;3.97;;;;;;;;;;4990410;28;20180;-77
2022/07/07 12:07:52;;;;;;;6.60;3.80;;;;;;;;;;4991232;28;20191;-77
2022/07/07 12:10:21;;;;;;;4.57;4.00;;;;;;;;;;4996399;28;20187;-76
2022/07/07 12:12:53;;;;;;;6.33;4.37;;;;;;;;;;4994208;28;20187;-77
2022/07/07 12:15:18;;;;;;;5.43;3.53;;;;;;;;;;4992619;28;20183;-77
2022/07/07 12:17:44;;;;;;;4.87;4.10;;;;;;;;;;4995450;28;20256;-77
2022/07/07 12:20:14;;;;;;;4.63;3.77;;;;;;;;;;4983853;28;20184;-77
2022/07/07 12:22:42;;;;;;;4.13;3.83;;;;;;;;;;4997509;28;20182;-77
2022/07/07 12:25:09;;;;;;;4.60;4.00;;;;;;;;;;4987041;28;20175;-77
2022/07/07 12:27:34;;;;;;;8.13;4.40;;;;;;;;;;4994668;28;20182;-77
2022/07/07 12:30:00;;;;;;;5.87;3.83;;;;;;;;;;4987493;28;20188;-77
2022/07/07 12:32:26;;;;;;;4.40;4.00;;;;;;;;;;4987100;28;20196;-77
2022/07/07 12:34:51;;;;;;;4.10;3.70;;;;;;;;;;4989841;28;20184;-77
2022/07/07 12:37:16;;;;;;;4.57;3.77;;;;;;;;;;4990159;28;20323;-77
2022/07/07 12:39:42;;;;;;;6.40;4.20;;;;;;;;;;4987903;28;20745;-77
2022/07/07 12:42:07;;;;;;;4.03;3.70;;;;;;;;;;4988327;28;20223;-77
2022/07/07 12:44:32;;;;;;;4.23;3.70;;;;;;;;;;4990467;28;20186;-77
2022/07/07 12:46:58;;;;;;;4.67;3.20;;;;;;;;;;4990033;28;20348;-77
2022/07/07 12:49:24;;;;;;;3.97;3.53;;;;;;;;;;4992066;28;20183;-77
2022/07/07 12:51:54;;;;;;;3.53;3.13;;;;;;;;;;4990861;28;20189;-77
2022/07/07 12:54:20;;;;;;;3.63;2.90;;;;;;;;;;4987206;28;20178;-77
2022/07/07 12:56:45;;;;;;;3.80;3.50;;;;;;;;;;4989471;28;20759;-77
2022/07/07 12:59:21;;;;;;;5.33;3.63;;;;;;;;;;4985805;28;20241;-77
2022/07/07 13:01:51;;;;;;;6.77;3.40;;;;;;;;;;4987572;28;20185;-77
2022/07/07 13:04:16;;;;;;;3.77;3.47;;;;;;;;;;4993123;28;20174;-77
2022/07/07 13:06:41;;;;;;;3.30;3.10;;;;;;;;;;4988997;28;20192;-77
2022/07/07 13:09:07;;;;;;;3.80;3.17;;;;;;;;;;4989722;28;20224;-77
2022/07/07 13:11:32;;;;;;;5.67;3.00;;;;;;;;;;4989396;28;20189;-77
2022/07/07 13:13:58;;;;;;;3.20;2.93;;;;;;;;;;4990351;28;20235;-77
2022/07/07 13:16:23;;;;;;;3.30;3.00;;;;;;;;;;4993051;28;20435;-77
2022/07/07 13:18:49;;;;;;;3.63;3.10;;;;;;;;;;4993938;28;20257;-77
2022/07/07 13:21:14;;;;;;;4.47;2.80;;;;;;;;;;4988392;28;20204;-77
2022/07/07 13:23:39;;;;;;;3.83;2.67;;;;;;;;;;4989741;28;20235;-77
2022/07/07 13:26:05;;;;;;;3.80;2.93;;;;;;;;;;4990907;28;20179;-77
2022/07/07 13:28:30;;;;;;;4.70;2.23;;;;;;;;;;4987473;28;20286;-77
2022/07/07 13:30:56;;;;;;;3.40;2.97;;;;;;;;;;4991207;28;20185;-77
2022/07/07 13:33:21;;;;;;;3.37;2.90;;;;;;;;;;4985670;28;20185;-77
2022/07/07 13:35:47;;;;;;;3.80;3.47;;;;;;;;;;4989449;28;20192;-77
2022/07/07 13:38:12;;;;;;;4.67;3.60;;;;;;;;;;4988729;28;20228;-77
2022/07/07 13:40:38;;;;;;;3.77;3.40;;;;;;;;;;4991920;28;20190;-77
2022/07/07 13:43:04;;;;;;;3.13;2.83;;;;;;;;;;4990059;28;20184;-77
2022/07/07 13:45:29;;;;;;;4.00;3.13;;;;;;;;;;4991162;28;20186;-77
2022/07/07 13:47:54;;;;;;;3.50;3.10;;;;;;;;;;4984339;28;20199;-77
2022/07/07 13:50:20;;;;;;;3.20;2.90;;;;;;;;;;4992268;28;20202;-77
2022/07/07 13:52:45;;;;;;;2.70;2.50;;;;;;;;;;4996242;28;20181;-77
2022/07/07 13:55:10;;;;;;;3.10;2.80;;;;;;;;;;4988958;28;20192;-77
2022/07/07 13:57:36;;;;;;;4.07;2.60;;;;;;;;;;4990695;28;20197;-77
2022/07/07 14:00:02;;;;;;;2.63;2.43;;;;;;;;;;4985370;28;20210;-77
2022/07/07 14:02:27;;;;;;;3.50;2.60;;;;;;;;;;4989203;28;20187;-77
2022/07/07 14:04:55;;;;;;;3.20;2.50;;;;;;;;;;4990745;28;20185;-77
2022/07/07 14:07:20;;;;;;;4.37;2.73;;;;;;;;;;4994517;28;20234;-76
2022/07/07 14:09:46;;;;;;;3.23;2.53;;;;;;;;;;4999126;28;20191;-77
2022/07/07 14:12:11;;;;;;;2.57;2.30;;;;;;;;;;4992063;28;20180;-77
2022/07/07 14:14:37;;;;;;;3.50;2.77;;;;;;;;;;4995341;28;20190;-77
2022/07/07 14:17:02;;;;;;;2.63;2.30;;;;;;;;;;4992383;28;20223;-77
2022/07/07 14:19:28;;;;;;;2.80;2.50;;;;;;;;;;4997197;28;20199;-77
2022/07/07 14:21:53;;;;;;;2.80;2.60;;;;;;;;;;4992448;28;20263;-77
2022/07/07 14:24:18;;;;;;;2.73;2.40;;;;;;;;;;4986168;28;20207;-77
2022/07/07 14:26:44;;;;;;;2.60;2.30;;;;;;;;;;4992398;28;20203;-77
2022/07/07 14:29:09;;;;;;;2.70;2.50;;;;;;;;;;4988531;28;20214;-77
2022/07/07 14:31:34;;;;;;;2.70;2.50;;;;;;;;;;4996562;28;20271;-77
2022/07/07 14:34:00;;;;;;;3.13;2.20;;;;;;;;;;4992017;28;20255;-77
2022/07/07 14:36:25;;;;;;;2.83;2.40;;;;;;;;;;4991021;28;20197;-77
2022/07/07 14:38:50;;;;;;;2.37;2.17;;;;;;;;;;4988571;28;20196;-77
2022/07/07 14:41:15;;;;;;;2.53;2.33;;;;;;;;;;4990860;28;20262;-77
2022/07/07 14:43:41;;;;;;;2.90;2.70;;;;;;;;;;4987208;28;20178;-77